Time;durP1;ratioP1;P1;durP2;ratioP2;P2;SDS_P1;SDS_P2;PMS_P1;PMS_P2;Temp;Humidity;BMP_temperature;BMP_pressure;BME280_temperature;BME280_humidity;BME280_pressure;Samples;Min_cycle;Max_cycle;Signal;HPM_P1;HPM_P2
2022/06/03 00:02:27;;;;;;;;;;;;;;;;;;;;;
2022/06/03 00:08:48;;;;;;;;;6.00;6.00;;;;;20.12;35.72;101194.72;4834510;29;45464;-86
2022/06/03 00:11:41;;;;;;;;;4.00;3.75;;;;;20.06;35.46;101193.16;4821273;29;47210;-89
2022/06/03 00:14:38;;;;;;;;;5.25;5.00;;;;;20.03;35.43;101196.81;4939520;28;45463;-90
2022/06/03 00:17:44;;;;;;;;;5.00;4.00;;;;;20.00;36.04;101193.38;4962050;28;45323;-89
2022/06/03 00:20:29;;;;;;;;;4.00;4.00;;;;;19.96;36.10;101181.91;5031376;28;45297;-90
2022/06/03 00:23:16;;;;;;;;;3.00;3.00;;;;;19.94;36.06;101181.13;5041551;28;47781;-89
2022/06/03 00:25:44;;;;;;;;;5.75;4.00;;;;;19.92;35.90;101190.13;5037888;28;45497;-89
2022/06/03 00:28:29;;;;;;;;;4.00;4.00;;;;;19.90;36.14;101178.59;5029674;28;45320;-89
2022/06/03 00:31:23;;;;;;;;;4.50;3.75;;;;;19.89;35.98;101182.19;5044337;28;45320;-89
2022/06/03 00:34:18;;;;;;;;;3.00;3.00;;;;;19.85;36.09;101181.44;5041186;28;46899;-91
2022/06/03 00:37:20;;;;;;;;;2.75;2.75;;;;;19.83;36.36;101181.50;5062213;28;44776;-90
2022/06/03 00:40:09;;;;;;;;;3.00;3.00;;;;;19.80;36.05;101181.56;5073755;28;45286;-90
2022/06/03 00:42:37;;;;;;;;;4.00;4.00;;;;;19.77;36.55;101186.16;5047962;28;45685;-89
2022/06/03 00:45:50;;;;;;;;;2.00;2.00;;;;;19.71;36.45;101184.59;5075187;28;47277;-89
2022/06/03 00:48:22;;;;;;;;;4.00;4.00;;;;;19.70;36.00;101193.53;5021332;28;45317;-88
2022/06/03 00:50:59;;;;;;;;;4.00;4.00;;;;;19.67;36.32;101187.41;5052862;28;45358;-89
2022/06/03 00:53:47;;;;;;;;;4.00;3.00;;;;;19.64;36.60;101196.34;5070522;28;45401;-88
2022/06/03 00:56:37;;;;;;;;;4.00;3.25;;;;;19.62;36.79;101195.56;5077005;28;47103;-88
2022/06/03 00:59:03;;;;;;;;;2.25;2.25;;;;;19.60;36.55;101189.41;5081915;27;44828;-88
2022/06/03 01:01:40;;;;;;;;;3.00;3.00;;;;;19.57;36.83;101193.03;5066312;28;45385;-88
2022/06/03 01:04:24;;;;;;;;;4.00;4.00;;;;;19.55;37.18;101194.88;5064689;28;44767;-89
2022/06/03 01:07:11;;;;;;;;;5.00;5.00;;;;;19.52;36.55;101197.66;5063536;28;46819;-89
2022/06/03 01:10:09;;;;;;;;;4.00;3.75;;;;;19.50;36.93;101201.31;5062920;28;45301;-89
2022/06/03 01:12:47;;;;;;;;;5.00;5.00;;;;;19.46;36.90;101199.66;5042519;28;45375;-89
2022/06/03 01:15:20;;;;;;;;;3.00;3.00;;;;;19.43;36.81;101186.41;5054557;28;45280;-88
2022/06/03 01:17:55;;;;;;;;;2.25;2.25;;;;;19.41;36.78;101186.47;5056240;28;47139;-89
2022/06/03 01:20:29;;;;;;;;;2.25;2.25;;;;;19.42;36.87;101179.34;5061549;28;45282;-89
2022/06/03 01:23:10;;;;;;;;;4.00;4.00;;;;;19.38;37.20;101179.44;5063094;28;45254;-89
2022/06/03 01:26:12;;;;;;;;;4.00;4.00;;;;;19.38;37.05;101179.44;5062983;28;45655;-90
2022/06/03 01:28:47;;;;;;;;;;;;;;;;;;;;;
2022/06/03 01:31:37;;;;;;;;;3.00;3.00;;;;;19.31;36.93;101172.53;5048416;28;72075;-89
2022/06/03 01:34:33;;;;;;;;;2.50;2.50;;;;;19.27;36.87;101165.59;5063261;28;45420;-89
2022/06/03 01:37:27;;;;;;;;;4.00;3.00;;;;;19.24;37.53;101168.31;5037135;28;45186;-90
2022/06/03 01:40:27;;;;;;;;;3.50;3.50;;;;;19.20;37.54;101166.69;5055316;28;47181;-89
2022/06/03 01:43:05;;;;;;;;;3.00;3.00;;;;;19.20;37.53;101165.81;5034163;28;45253;-89
2022/06/03 01:46:04;;;;;;;;;;;;;;;;;;;;;
2022/06/03 01:48:56;;;;;;;;;3.00;3.00;;;;;19.19;37.21;101164.94;5042925;28;71439;-90
2022/06/03 01:52:10;;;;;;;;;2.00;1.75;;;;;19.18;37.35;101158.72;5051097;28;47097;-91
2022/06/03 01:55:15;;;;;;;;;5.00;5.00;;;;;19.17;37.49;101157.00;5044190;28;45461;-90
2022/06/03 01:58:05;;;;;;;;;4.00;3.75;;;;;19.16;37.75;101149.03;5044939;28;45471;-90
2022/06/03 02:00:39;;;;;;;;;2.25;2.25;;;;;19.14;37.72;101154.44;5028625;28;45262;-89
2022/06/03 02:03:24;;;;;;;;;4.00;4.00;;;;;19.10;37.47;101150.09;5060440;28;45192;-89
2022/06/03 02:06:02;;;;;;;;;2.50;2.50;;;;;19.09;37.64;101148.38;5080824;28;44910;-89
2022/06/03 02:08:27;;;;;;;;;4.00;3.50;;;;;19.07;37.65;101150.19;5032845;28;45458;-89
2022/06/03 02:11:43;;;;;;;;;4.50;4.00;;;;;19.03;37.76;101147.66;5055294;28;45630;-89
2022/06/03 02:14:50;;;;;;;;;2.75;2.75;;;;;18.96;38.08;101136.34;5039834;28;47118;-90
2022/06/03 02:17:47;;;;;;;;;3.00;3.00;;;;;18.93;38.03;101136.44;5055668;28;45323;-90
2022/06/03 02:20:18;;;;;;;;;4.00;4.00;;;;;18.90;37.79;101128.53;5039512;28;45287;-89
2022/06/03 02:23:20;;;;;;;;;4.00;4.00;;;;;18.87;38.19;101128.63;5058927;28;45931;-89
2022/06/03 02:26:05;;;;;;;;;4.50;4.50;;;;;18.84;38.04;101124.25;5052235;28;46713;-90
2022/06/03 02:28:46;;;;;;;;;;;;;;;;;;;;;
2022/06/03 02:31:28;;;;;;;;;;;;;;;;;;;;;
2022/06/03 02:34:18;;;;;;;;;5.00;5.00;;;;;18.75;38.44;101116.56;5062370;28;71892;-90
2022/06/03 02:37:10;;;;;;;;;4.00;4.00;;;;;18.72;38.63;101108.63;5045218;28;47185;-90
2022/06/03 02:39:38;;;;;;;;;3.50;3.50;;;;;18.70;38.70;101108.66;5034561;28;45284;-89
2022/06/03 02:43:07;;;;;;;;;4.50;4.00;;;;;18.68;38.54;101102.50;5043075;28;45332;-89
2022/06/03 02:46:06;;;;;;;;;;;;;;;;;;;;;
2022/06/03 02:49:10;;;;;;;;;4.00;4.00;;;;;18.65;38.49;101101.72;4979033;28;74216;-89
2022/06/03 02:51:56;;;;;;;;;3.25;3.25;;;;;18.63;38.59;101096.44;5075632;28;45421;-88
2022/06/03 02:54:41;;;;;;;;;5.50;5.00;;;;;18.62;38.78;101096.47;5048745;28;45256;-90
2022/06/03 02:57:21;;;;;;;;;4.00;4.00;;;;;18.59;38.57;101092.13;5063597;28;45590;-89
2022/06/03 03:00:13;;;;;;;;;4.25;4.00;;;;;18.58;38.60;101094.81;5063945;28;46667;-89
2022/06/03 03:03:24;;;;;;;;;4.50;4.50;;;;;18.56;38.79;101096.69;5060326;28;45889;-90
2022/06/03 03:06:48;;;;;;;;;4.00;4.00;;;;;18.52;38.73;101103.88;5037852;28;45354;-90
2022/06/03 03:09:57;;;;;;;;;4.00;4.00;;;;;18.50;39.07;101097.75;5006018;28;45539;-89
2022/06/03 03:12:51;;;;;;;;;;;;;;;;;;;;;
2022/06/03 03:15:45;;;;;;;;;5.00;5.00;;;;;18.49;39.16;101090.66;5054994;28;72537;-88
2022/06/03 03:18:24;;;;;;;;;4.00;2.25;;;;;18.48;38.85;101080.91;5054873;28;45431;-87
2022/06/03 03:21:08;;;;;;;;;2.75;2.75;;;;;18.47;38.85;101080.06;5054834;28;46124;-84
2022/06/03 03:23:58;;;;;;;;;4.00;4.00;;;;;18.49;38.78;101085.31;5053334;28;47343;-84
2022/06/03 03:26:51;;;;;;;;;3.50;3.50;;;;;18.49;39.01;101091.53;5048173;28;45445;-84
2022/06/03 03:29:45;;;;;;;;;5.50;5.50;;;;;18.50;38.99;101095.94;5053643;28;45513;-83
2022/06/03 03:32:31;;;;;;;;;4.75;4.00;;;;;18.52;39.00;101101.22;5069010;28;45548;-84
2022/06/03 03:35:04;;;;;;;;;5.75;4.00;;;;;18.52;39.01;101102.13;5058512;28;47186;-84
2022/06/03 03:38:13;;;;;;;;;2.75;2.75;;;;;18.53;39.01;101100.31;5056688;28;45331;-84
2022/06/03 03:40:50;;;;;;;;;4.00;4.00;;;;;18.55;39.07;101095.81;5058828;28;45492;-84
2022/06/03 03:44:01;;;;;;;;;5.00;3.25;;;;;18.57;39.22;101085.09;5059541;28;45650;-83
2022/06/03 03:46:48;;;;;;;;;3.50;3.50;;;;;18.55;39.25;101087.81;5033534;28;48387;-84
2022/06/03 03:49:25;;;;;;;;;4.25;4.00;;;;;18.54;39.28;101086.06;5048969;28;45429;-84
2022/06/03 03:52:18;;;;;;;;;3.50;3.00;;;;;18.54;39.05;101083.38;5056977;28;45447;-83
2022/06/03 03:55:21;;;;;;;;;3.75;3.75;;;;;18.51;39.50;101083.50;5058416;28;45453;-84
2022/06/03 03:57:55;;;;;;;;;4.50;4.50;;;;;18.51;39.41;101094.16;5046195;28;45552;-84
2022/06/03 04:00:29;;;;;;;;;6.00;6.00;;;;;18.52;39.48;101091.44;5037899;28;45497;-84
2022/06/03 04:03:13;;;;;;;;;10.25;8.25;;;;;18.52;40.15;101085.22;5038190;28;45320;-84
2022/06/03 04:05:57;;;;;;;;;8.00;7.00;;;;;18.50;40.54;101089.75;5050372;28;45598;-83
2022/06/03 04:08:38;;;;;;;;;9.00;8.00;;;;;18.47;40.92;101087.16;5041499;28;47513;-84
2022/06/03 04:11:29;;;;;;;;;12.00;11.25;;;;;18.47;40.95;101100.50;5042536;28;45268;-84
2022/06/03 04:14:19;;;;;;;;;11.50;10.25;;;;;18.44;41.39;101101.47;5038830;28;45260;-83
2022/06/03 04:17:06;;;;;;;;;13.75;12.50;;;;;18.42;41.65;101103.31;5049499;28;45268;-83
2022/06/03 04:19:50;;;;;;;;;11.50;11.50;;;;;18.40;41.85;101090.94;5056070;28;47295;-83
2022/06/03 04:22:52;;;;;;;;;11.25;11.25;;;;;18.39;42.05;101103.41;5046479;28;45446;-83
2022/06/03 04:25:36;;;;;;;;;12.75;11.75;;;;;18.38;42.45;101095.44;5057274;28;45397;-84
2022/06/03 04:28:48;;;;;;;;;11.75;11.75;;;;;18.38;42.41;101090.97;5047825;28;45475;-83
2022/06/03 04:32:03;;;;;;;;;11.25;11.25;;;;;18.39;42.67;101081.19;5057499;28;45320;-83
2022/06/03 04:34:47;;;;;;;;;13.50;11.50;;;;;18.38;42.46;101082.13;4979435;28;45339;-83
2022/06/03 04:38:00;;;;;;;;;9.25;9.25;;;;;18.39;42.71;101081.19;5034691;28;45269;-83
2022/06/03 04:40:50;;;;;;;;;17.25;14.50;;;;;18.41;42.95;101082.03;5039101;28;45434;-83
2022/06/03 04:43:55;;;;;;;;;12.75;12.75;;;;;18.43;42.40;101094.38;5035334;28;47104;-84
2022/06/03 04:46:35;;;;;;;;;12.50;11.50;;;;;18.48;42.83;101099.59;5038027;28;45586;-83
2022/06/03 04:49:35;;;;;;;;;11.00;11.00;;;;;18.53;42.88;101092.31;5047117;28;45466;-83
2022/06/03 04:52:03;;;;;;;;;10.50;8.00;;;;;18.58;42.61;101098.38;5040837;28;45733;-83
2022/06/03 04:54:54;;;;;;;;;6.00;6.00;;;;;18.62;42.06;101109.81;5037660;28;47732;-83
2022/06/03 04:57:56;;;;;;;;;7.75;6.75;;;;;18.68;42.28;101112.28;5049010;28;45254;-83
2022/06/03 05:01:01;;;;;;;;;10.00;10.00;;;;;18.75;41.88;101107.69;5038006;28;45366;-83
2022/06/03 05:03:27;;;;;;;;;8.75;8.75;;;;;18.80;42.25;101111.06;5018961;28;45580;-83
2022/06/03 05:06:26;;;;;;;;;7.75;7.75;;;;;18.80;41.98;101106.59;5039991;28;47203;-82
2022/06/03 05:09:19;;;;;;;;;5.50;5.50;;;;;18.85;41.97;101103.81;5033076;28;45186;-83
2022/06/03 05:12:23;;;;;;;;;8.00;7.00;;;;;18.91;41.84;101101.78;5049545;28;45486;-83
2022/06/03 05:15:25;;;;;;;;;6.25;6.00;;;;;18.97;41.49;101089.19;5054683;28;45225;-84
2022/06/03 05:18:35;;;;;;;;;6.75;6.75;;;;;19.01;41.15;101080.16;5023588;28;47417;-83
2022/06/03 05:21:45;;;;;;;;;8.00;6.00;;;;;19.04;41.13;101072.03;5032177;28;45259;-83
2022/06/03 05:24:56;;;;;;;;;7.75;6.50;;;;;19.07;40.88;101075.47;5032767;28;45501;-84
2022/06/03 05:27:41;;;;;;;;;7.75;7.25;;;;;19.09;40.45;101073.63;5015756;28;45495;-84
2022/06/03 05:30:24;;;;;;;;;6.00;5.00;;;;;19.14;40.86;101087.69;5041919;28;45434;-84
2022/06/03 05:33:19;;;;;;;;;6.00;5.50;;;;;19.21;40.53;101090.16;5033202;28;45266;-83
2022/06/03 05:36:00;;;;;;;;;5.75;5.00;;;;;19.27;40.87;101092.59;5038558;28;45273;-84
2022/06/03 05:39:04;;;;;;;;;4.50;4.50;;;;;19.32;40.72;101090.66;5051202;28;45473;-83
2022/06/03 05:42:27;;;;;;;;;4.25;4.25;;;;;19.39;40.27;101098.41;5041699;28;45406;-83
2022/06/03 05:45:08;;;;;;;;;4.50;4.50;;;;;19.44;40.72;101089.38;5037090;28;45735;-83
2022/06/03 05:47:47;;;;;;;;;5.75;5.75;;;;;19.49;40.65;101088.28;5041881;28;45264;-84
2022/06/03 05:50:21;;;;;;;;;6.75;6.75;;;;;19.56;40.08;101078.22;5041736;28;45437;-84
2022/06/03 05:52:58;;;;;;;;;6.00;6.00;;;;;19.61;40.49;101086.97;5048845;28;46530;-85
2022/06/03 05:55:59;;;;;;;;;5.50;5.00;;;;;19.67;40.55;101088.56;5023854;28;45542;-84
2022/06/03 05:58:38;;;;;;;;;7.00;6.00;;;;;19.76;40.01;101082.91;4991720;28;45467;-84
2022/06/03 06:01:19;;;;;;;;;4.75;4.00;;;;;19.79;40.06;101083.66;5047347;28;45497;-82
2022/06/03 06:04:09;;;;;;;;;6.75;6.00;;;;;19.84;40.38;101078.16;5041024;28;46492;-83
2022/06/03 06:06:55;;;;;;;;;8.00;5.25;;;;;19.91;40.52;101076.09;5029821;28;47307;-82
2022/06/03 06:09:44;;;;;;;;;7.00;6.00;;;;;19.94;40.01;101076.88;5058466;28;45379;-81
2022/06/03 06:12:36;;;;;;;;;6.00;6.00;;;;;19.97;40.29;101081.25;5036231;28;45767;-82
2022/06/03 06:15:20;;;;;;;;;7.00;7.00;;;;;20.03;39.93;101087.22;5051152;28;45212;-81
2022/06/03 06:17:46;;;;;;;;;6.50;4.50;;;;;20.09;40.30;101087.91;5042695;28;45275;-81
2022/06/03 06:20:34;;;;;;;;;6.50;6.50;;;;;20.12;40.15;101091.34;5043468;28;45371;-83
2022/06/03 06:23:24;;;;;;;;;11.00;8.25;;;;;20.18;39.87;101085.78;5027710;28;45607;-81
2022/06/03 06:26:04;;;;;;;;;6.75;6.75;;;;;20.23;39.69;101082.91;5038106;28;47465;-82
2022/06/03 06:29:05;;;;;;;;;7.25;7.25;;;;;20.24;39.68;101076.66;5053751;28;45473;-82
2022/06/03 06:31:58;;;;;;;;;9.75;7.75;;;;;20.26;40.16;101073.00;5023153;28;45358;-82
2022/06/03 06:34:59;;;;;;;;;6.00;6.00;;;;;20.31;39.80;101074.59;5060093;28;45377;-83
2022/06/03 06:37:48;;;;;;;;;8.00;6.50;;;;;20.34;40.24;101086.06;5039430;28;47017;-81
2022/06/03 06:40:33;;;;;;;;;6.00;5.00;;;;;20.37;39.91;101085.03;5042079;28;45297;-82
2022/06/03 06:43:17;;;;;;;;;8.50;7.00;;;;;20.41;40.08;101078.66;5049287;28;45337;-81
2022/06/03 06:45:56;;;;;;;;;8.25;6.50;;;;;20.46;40.12;101074.00;5030804;28;45503;-81
2022/06/03 06:48:59;;;;;;;;;10.00;6.75;;;;;20.49;40.19;101073.88;5039451;28;47803;-82
2022/06/03 06:51:33;;;;;;;;;7.25;7.25;;;;;20.54;40.29;101065.72;5038616;28;45710;-82
2022/06/03 06:54:04;;;;;;;;;11.75;8.75;;;;;20.58;40.14;101070.00;5049502;28;45440;-82
2022/06/03 06:57:14;;;;;;;;;8.50;7.50;;;;;20.62;40.33;101063.59;5038593;28;45349;-82
2022/06/03 06:59:50;;;;;;;;;6.25;5.00;;;;;20.58;39.98;101052.16;4973704;28;46060;-80
2022/06/03 07:02:25;;;;;;;;;6.25;5.25;;;;;20.56;40.07;101051.34;4968389;28;45997;-82
2022/06/03 07:05:04;;;;;;;;;6.00;6.00;;;;;20.57;40.14;101050.41;5023464;28;45481;-81
2022/06/03 07:07:40;;;;;;;;;6.00;6.00;;;;;20.60;40.48;101052.94;5045491;28;45469;-80
2022/06/03 07:10:08;;;;;;;;;7.00;7.00;;;;;20.63;40.46;101050.13;5038864;28;47160;-80
2022/06/03 07:13:08;;;;;;;;;7.75;6.75;;;;;20.75;40.76;101048.78;5040229;28;45310;-81
2022/06/03 07:15:51;;;;;;;;;8.00;6.50;;;;;20.86;40.38;101057.22;5022511;28;45248;-80
2022/06/03 07:21:39;;;;;;;;;7.00;6.00;;;;;21.14;40.41;101051.59;5053897;28;45403;-81
2022/06/03 07:24:18;;;;;;;;;6.50;6.50;;;;;21.24;39.78;101052.06;5038942;28;45419;-82
2022/06/03 07:26:54;;;;;;;;;6.25;6.00;;;;;21.32;39.78;101046.38;5042380;28;45329;-84
2022/06/03 07:29:35;;;;;;;;;5.75;5.75;;;;;21.41;39.76;101058.50;5040943;28;45428;-86
2022/06/03 07:32:17;;;;;;;;;8.25;8.25;;;;;21.47;39.61;101053.78;5021826;28;47001;-86
2022/06/03 07:35:01;;;;;;;;;10.00;9.00;;;;;21.57;39.64;101062.25;5047735;28;45620;-85
2022/06/03 07:37:49;;;;;;;;;10.75;9.50;;;;;21.65;39.87;101068.19;5037479;28;45513;-85
2022/06/03 07:40:39;;;;;;;;;9.00;9.00;;;;;21.70;39.55;101068.81;5025412;28;45408;-86
2022/06/03 07:43:38;;;;;;;;;11.25;10.00;;;;;21.78;39.37;101060.44;5035525;28;45435;-82
2022/06/03 07:46:13;;;;;;;;;9.00;9.00;;;;;21.83;39.32;101066.44;5050879;28;45411;-82
2022/06/03 07:48:40;;;;;;;;;6.00;6.00;;;;;21.85;39.09;101064.59;5036222;28;45461;-83
2022/06/03 07:51:10;;;;;;;;;8.50;8.50;;;;;21.90;39.40;101072.41;5032794;28;45363;-82
2022/06/03 07:53:52;;;;;;;;;10.00;9.75;;;;;21.95;39.33;101071.25;5034712;28;47065;-82
2022/06/03 07:56:21;;;;;;;;;8.00;6.00;;;;;22.01;39.07;101076.34;5050494;28;45326;-82
2022/06/03 07:58:51;;;;;;;;;11.00;9.00;;;;;22.06;39.19;101086.84;5031081;28;45428;-83
2022/06/03 08:01:21;;;;;;;;;9.50;9.50;;;;;22.11;39.09;101092.88;5038667;28;45304;-82
2022/06/03 08:03:47;;;;;;;;;9.50;9.00;;;;;22.17;39.12;101084.53;5031909;28;47158;-83
2022/06/03 08:06:13;;;;;;;;;9.50;7.75;;;;;22.24;39.29;101086.03;5028046;28;45372;-83
2022/06/03 08:11:34;;;;;;;;;12.25;9.50;;;;;22.40;38.72;101087.97;5052047;28;45237;-82
2022/06/03 08:14:02;;;;;;;;;6.25;6.25;;;;;22.49;39.13;101092.06;5039341;28;45501;-83
2022/06/03 08:16:35;;;;;;;;;9.75;9.25;;;;;22.50;38.88;101086.59;5029985;28;45396;-83
2022/06/03 08:19:08;;;;;;;;;9.00;9.00;;;;;22.50;38.75;101091.97;5045484;28;45432;-83
2022/06/03 08:21:52;;;;;;;;;9.00;8.00;;;;;22.58;38.37;101095.16;5051701;28;45383;-81
2022/06/03 08:24:36;;;;;;;;;6.50;6.50;;;;;22.67;38.31;101078.63;5039333;28;47693;-81
2022/06/03 08:27:20;;;;;;;;;16.00;14.00;;;;;22.76;38.68;101087.16;5034282;28;45554;-81
2022/06/03 08:30:03;;;;;;;;;34.50;32.00;;;;;22.85;38.58;101075.97;5054860;28;45473;-81
2022/06/03 08:32:43;;;;;;;;;8.50;8.50;;;;;22.93;38.20;101076.44;5042420;28;45332;-81
2022/06/03 08:35:19;;;;;;;;;9.00;8.50;;;;;23.01;38.17;101068.91;5059058;28;46540;-80
2022/06/03 08:37:54;;;;;;;;;8.25;8.00;;;;;23.09;38.17;101065.81;5039267;28;45458;-81
2022/06/03 08:40:25;;;;;;;;;9.50;8.50;;;;;23.18;38.05;101060.00;5037790;28;45336;-81
2022/06/03 08:43:18;;;;;;;;;8.25;8.25;;;;;23.24;38.19;101051.63;5037807;28;45499;-81
2022/06/03 08:46:03;;;;;;;;;6.75;6.00;;;;;23.36;38.61;101043.88;5047757;28;46656;-83
2022/06/03 08:48:40;;;;;;;;;9.25;9.25;;;;;23.50;37.86;101050.25;5030817;28;45207;-82
2022/06/03 08:51:18;;;;;;;;;9.50;8.75;;;;;23.53;37.70;101041.16;5033919;28;45310;-77
2022/06/03 08:53:52;;;;;;;;;13.00;11.00;;;;;23.58;37.65;101043.63;5030957;28;45415;-82
2022/06/03 08:56:32;;;;;;;;;9.75;7.50;;;;;23.68;37.85;101044.84;5044917;28;47180;-85
2022/06/03 08:59:10;;;;;;;;;10.00;8.00;;;;;23.80;38.21;101046.91;5045278;28;45475;-86
2022/06/03 09:01:43;;;;;;;;;8.50;8.00;;;;;23.92;37.86;101046.25;5040365;28;45579;-86
2022/06/03 09:04:20;;;;;;;;;11.75;10.50;;;;;24.07;38.02;101049.91;5036996;28;45482;-86
2022/06/03 09:06:58;;;;;;;;;9.50;9.00;;;;;24.15;37.80;101052.19;5041213;28;47633;-86
2022/06/03 09:09:52;;;;;;;;;8.50;7.00;;;;;24.14;37.10;101043.25;5041172;28;45560;-87
2022/06/03 09:12:41;;;;;;;;;10.00;9.25;;;;;24.16;37.59;101044.03;5038406;28;45419;-87
2022/06/03 09:15:17;;;;;;;;;11.25;10.25;;;;;24.22;37.57;101034.75;5046859;28;45482;-86
2022/06/03 09:18:06;;;;;;;;;11.00;11.00;;;;;24.34;37.80;101039.44;5043824;28;48271;-87
2022/06/03 09:20:38;;;;;;;;;10.00;7.50;;;;;24.46;37.40;101027.16;5029327;28;45733;-87
2022/06/03 09:23:08;;;;;;;;;11.25;9.75;;;;;24.54;37.58;101026.69;5045820;28;45548;-87
2022/06/03 09:25:42;;;;;;;;;9.25;8.75;;;;;24.62;37.67;101037.91;5043870;28;45511;-87
2022/06/03 09:28:19;;;;;;;;;10.25;7.50;;;;;24.65;37.17;101025.13;5040611;28;48337;-87
2022/06/03 09:30:49;;;;;;;;;9.75;9.75;;;;;24.72;37.38;101030.13;5055441;28;45458;-87
2022/06/03 09:33:19;;;;;;;;;9.50;9.00;;;;;24.80;37.31;101042.19;5037275;28;45778;-87
2022/06/03 09:35:47;;;;;;;;;10.00;9.25;;;;;24.89;37.75;101043.50;5048601;28;45492;-87
2022/06/03 09:38:16;;;;;;;;;13.75;10.00;;;;;25.00;37.44;101042.84;5042770;28;47611;-86
2022/06/03 09:40:45;;;;;;;;;6.25;6.25;;;;;25.11;37.33;101053.84;5071388;28;45608;-85
2022/06/03 09:43:27;;;;;;;;;10.00;8.00;;;;;25.23;37.41;101047.78;5036902;28;45454;-80
2022/06/03 09:45:58;;;;;;;;;12.00;11.00;;;;;25.41;37.05;101048.47;5037459;28;45505;-85
2022/06/03 09:48:28;;;;;;;;;12.25;11.00;;;;;25.51;37.21;101051.47;5054477;28;47817;-83
2022/06/03 09:50:57;;;;;;;;;10.00;8.75;;;;;25.58;36.78;101051.97;5038890;28;46482;-81
2022/06/03 09:53:30;;;;;;;;;8.50;8.50;;;;;25.66;37.46;101046.94;5061791;28;45527;-84
2022/06/03 09:56:02;;;;;;;;;12.25;8.75;;;;;25.82;36.97;101045.06;5037493;28;45872;-84
2022/06/03 09:58:33;;;;;;;;;9.00;9.00;;;;;25.96;36.51;101050.47;5070500;28;46539;-85
2022/06/03 10:01:00;;;;;;;;;6.25;6.00;;;;;26.09;36.71;101061.38;5035786;28;45735;-81
2022/06/03 10:03:27;;;;;;;;;10.00;10.00;;;;;26.18;36.31;101076.97;5031289;28;45328;-82
2022/06/03 10:05:58;;;;;;;;;9.75;7.75;;;;;26.28;36.15;101081.78;5069642;28;45667;-82
2022/06/03 10:08:28;;;;;;;;;8.75;7.75;;;;;26.33;36.26;101077.81;5049808;28;46643;-83
2022/06/03 10:13:42;;;;;;;;;11.00;10.00;;;;;26.67;35.87;101077.47;5049675;28;45470;-83
2022/06/03 10:16:12;;;;;;;;;11.75;11.00;;;;;26.75;35.72;101069.72;5036600;28;45653;-80
2022/06/03 10:18:49;;;;;;;;;10.75;10.75;;;;;26.85;35.81;101054.63;5060832;28;47999;-85
2022/06/03 10:21:14;;;;;;;;;11.50;11.50;;;;;27.04;35.57;101048.84;5043717;28;45404;-84
2022/06/03 10:23:52;;;;;;;;;11.75;10.50;;;;;27.16;35.17;101055.25;5040347;28;45431;-82
2022/06/03 10:27:01;;;;;;;;;13.50;12.25;;;;;27.18;34.99;101059.59;5057472;28;45282;-83
2022/06/03 10:33:10;;;;;;;;;;;;;;;;;;;;;
2022/06/03 10:35:40;;;;;;;;;16.75;15.25;;;;;27.12;35.32;101037.53;5049007;28;69253;-83
2022/06/03 10:38:07;;;;;;;;;13.50;11.00;;;;;27.18;34.97;101043.38;5039412;28;45530;-83
2022/06/03 10:40:44;;;;;;;;;13.75;13.75;;;;;27.24;35.16;101037.59;5021919;28;47577;-83
2022/06/03 10:43:33;;;;;;;;;13.75;13.00;;;;;27.27;35.37;101033.81;5039758;28;45687;-83
2022/06/03 11:06:47;;;;;;;;;12.25;9.75;;;;;27.57;35.76;101036.19;4978452;28;45535;-86
2022/06/03 11:10:07;;;;;;;;;12.00;11.00;;;;;27.55;35.84;101043.53;4886114;29;45592;-86
2022/06/03 11:13:38;;;;;;;;;;;;;;;;;;;;;
2022/06/03 11:17:20;;;;;;;;;14.50;11.25;;;;;27.65;35.92;101051.88;4808753;29;72806;-84
2022/06/03 11:20:15;;;;;;;;;14.25;13.00;;;;;27.65;36.06;101063.56;4835870;29;46340;-84
2022/06/03 11:23:09;;;;;;;;;14.00;11.50;;;;;27.48;36.21;101062.06;4878075;29;45336;-84
2022/06/03 11:26:00;;;;;;;;;14.50;13.50;;;;;27.39;36.24;101078.91;5017856;28;45331;-84
2022/06/03 11:28:56;;;;;;;;;13.75;12.00;;;;;27.16;36.57;101075.06;5041337;28;45502;-85
2022/06/03 11:32:24;;;;;;;;;;;;;;;;;;;;;
2022/06/03 11:37:54;;;;;;;;;12.75;12.75;;;;;26.63;37.77;101084.06;5049427;28;45531;-85
2022/06/03 11:40:44;;;;;;;;;9.50;9.50;;;;;26.45;38.07;101075.28;5056780;28;45379;-84
2022/06/03 11:43:26;;;;;;;;;;;;;;;;;;;;;
2022/06/03 11:46:02;;;;;;;;;14.75;12.50;;;;;26.13;38.56;101080.91;5070572;28;71521;-82
2022/06/03 11:48:48;;;;;;;;;14.75;14.75;;;;;26.00;38.82;101079.97;5061194;28;45872;-87
2022/06/03 11:51:22;;;;;;;;;12.25;12.25;;;;;25.82;39.41;101082.81;5077565;28;45428;-86
2022/06/03 11:53:55;;;;;;;;;16.25;14.25;;;;;25.67;39.85;101081.06;5078089;28;46337;-83
2022/06/03 11:56:30;;;;;;;;;12.00;11.00;;;;;25.57;40.41;101086.16;5060585;28;45430;-85
2022/06/03 11:59:17;;;;;;;;;9.25;9.25;;;;;25.43;40.97;101087.00;5061010;28;46508;-82
2022/06/03 12:02:07;;;;;;;;;11.00;10.50;;;;;25.33;41.46;101083.13;5060641;28;45508;-85
2022/06/03 12:04:51;;;;;;;;;13.00;11.00;;;;;25.29;41.20;101089.66;5060432;28;47317;-82
2022/06/03 12:07:32;;;;;;;;;10.00;9.50;;;;;25.27;41.47;101086.19;5060150;28;45521;-84
2022/06/03 12:10:11;;;;;;;;;8.50;8.25;;;;;25.19;42.00;101086.63;5066729;28;45512;-83
2022/06/03 12:15:33;;;;;;;;;8.75;8.75;;;;;24.97;42.10;101081.63;5061790;28;45419;-83
2022/06/03 12:18:09;;;;;;;;;6.00;6.00;;;;;24.89;42.88;101088.44;5048682;28;45364;-82
2022/06/03 12:20:36;;;;;;;;;11.00;11.00;;;;;24.82;43.12;101080.69;5059791;28;45338;-84
2022/06/03 12:23:11;;;;;;;;;10.50;10.50;;;;;24.74;42.95;101080.25;5060236;28;45557;-85
2022/06/03 12:25:51;;;;;;;;;10.25;8.00;;;;;24.70;43.37;101085.91;5060057;28;46418;-85
2022/06/03 12:28:21;;;;;;;;;10.00;9.50;;;;;24.64;43.69;101085.31;5065569;28;45563;-85
2022/06/03 12:30:53;;;;;;;;;9.00;9.00;;;;;24.62;43.64;101092.59;5073663;27;45374;-85
2022/06/03 12:33:45;;;;;;;;;9.00;9.00;;;;;24.61;43.81;101087.31;5056489;28;45418;-85
2022/06/03 12:36:40;;;;;;;;;8.25;8.25;;;;;24.55;44.87;101088.53;5048414;28;46975;-84
2022/06/03 12:39:20;;;;;;;;;7.50;7.50;;;;;24.53;45.38;101095.81;4983041;28;45549;-85
2022/06/03 12:41:45;;;;;;;;;6.25;6.25;;;;;24.52;46.36;101096.78;5059410;28;45380;-85
2022/06/03 12:44:41;;;;;;;;;9.00;8.75;;;;;24.48;46.20;101094.34;5058735;28;45334;-85
2022/06/03 12:47:39;;;;;;;;;7.25;7.25;;;;;24.39;47.29;101101.06;5069819;28;46979;-85
2022/06/03 12:50:04;;;;;;;;;10.25;10.25;;;;;24.32;47.29;101095.16;5064315;28;45528;-84
2022/06/03 12:52:29;;;;;;;;;12.00;9.00;;;;;24.25;48.13;101090.22;5063248;28;45500;-84
2022/06/03 12:55:14;;;;;;;;;8.50;8.25;;;;;24.20;48.19;101091.31;5068387;28;45314;-84
2022/06/03 12:57:47;;;;;;;;;10.50;9.25;;;;;24.19;48.78;101096.78;5073933;28;47184;-83
2022/06/03 13:00:18;;;;;;;;;8.75;8.75;;;;;24.16;49.14;101091.56;5073231;28;44941;-84
2022/06/03 13:02:56;;;;;;;;;8.50;6.25;;;;;24.12;49.38;101088.19;5089130;28;45618;-86
2022/06/03 13:05:37;;;;;;;;;8.75;7.75;;;;;24.13;49.77;101086.38;5073869;28;45635;-84
2022/06/03 13:08:33;;;;;;;;;9.00;8.00;;;;;24.12;49.75;101077.44;5067417;28;47149;-85
2022/06/03 13:11:02;;;;;;;;;5.00;5.00;;;;;24.13;50.22;101081.00;5067016;28;45426;-85
2022/06/03 13:13:29;;;;;;;;;8.00;8.00;;;;;24.13;50.18;101084.53;5054824;28;45528;-85
2022/06/03 13:16:20;;;;;;;;;9.50;8.75;;;;;24.11;50.73;101081.09;5056652;28;45544;-84
2022/06/03 13:19:19;;;;;;;;;12.00;11.00;;;;;24.09;50.43;101079.44;5059340;28;45551;-85
2022/06/03 13:21:57;;;;;;;;;8.50;8.25;;;;;24.09;50.97;101074.06;5049384;28;45450;-83
2022/06/03 13:24:29;;;;;;;;;12.00;10.25;;;;;24.10;51.21;101075.78;5061181;27;45359;-83
2022/06/03 13:26:58;;;;;;;;;9.75;9.00;;;;;24.10;50.99;101081.16;5059070;28;45645;-81
2022/06/03 13:29:52;;;;;;;;;10.25;9.25;;;;;24.11;51.41;101085.56;5039179;28;47075;-84
2022/06/03 13:32:35;;;;;;;;;10.00;10.00;;;;;24.10;51.15;101090.09;5068104;28;45754;-84
2022/06/03 13:35:05;;;;;;;;;8.50;8.50;;;;;24.10;51.02;101094.59;5058804;28;45541;-83
2022/06/03 13:37:45;;;;;;;;;7.00;7.00;;;;;24.05;51.80;101094.00;5048510;28;45379;-84
2022/06/03 13:40:27;;;;;;;;;10.75;10.25;;;;;24.00;51.93;101099.59;5064822;28;45723;-84